Time;durP1;ratioP1;P1;durP2;ratioP2;P2;SDS_P1;SDS_P2;PMS_P1;PMS_P2;Temp;Humidity;BMP_temperature;BMP_pressure;BME280_temperature;BME280_humidity;BME280_pressure;Samples;Min_cycle;Max_cycle;Signal;HPM_P1;HPM_P2
2020/12/30 00:00:52;;;;;;;9.87;3.60;;;;;;;0.75;83.65;97304.28;5031114;28;20115;-80
2020/12/30 00:03:19;;;;;;;11.67;3.50;;;;;;;0.74;83.07;97299.97;5030580;28;20502;-80
2020/12/30 00:05:45;;;;;;;6.43;3.33;;;;;;;0.77;83.65;97320.16;5029878;28;20072;-80
2020/12/30 00:08:12;;;;;;;14.83;3.23;;;;;;;0.74;83.54;97312.50;5031191;28;20064;-80
2020/12/30 00:10:39;;;;;;;6.60;3.20;;;;;;;0.80;83.34;97327.88;5030328;28;20107;-81
2020/12/30 00:13:06;;;;;;;4.87;3.13;;;;;;;0.69;83.14;97321.00;5030931;28;20383;-80
2020/12/30 00:15:32;;;;;;;8.43;3.40;;;;;;;0.62;83.26;97304.00;5030161;28;20053;-80
2020/12/30 00:17:58;;;;;;;7.20;4.10;;;;;;;0.64;83.93;97324.19;5030396;28;20053;-80
2020/12/30 00:20:24;;;;;;;5.73;2.90;;;;;;;0.65;83.39;97315.19;5029880;28;20486;-80
2020/12/30 00:22:51;;;;;;;7.50;4.00;;;;;;;0.58;83.26;97295.44;5030700;28;20058;-80
2020/12/30 00:25:18;;;;;;;6.50;3.70;;;;;;;0.75;83.35;97315.00;5030337;28;20048;-80
2020/12/30 00:27:45;;;;;;;8.43;3.00;;;;;;;0.84;83.41;97329.19;5030171;28;20052;-80
2020/12/30 00:30:14;;;;;;;5.17;3.07;;;;;;;0.77;82.95;97318.34;5030015;28;20054;-80
2020/12/30 00:32:40;;;;;;;8.80;3.20;;;;;;;0.70;83.12;97312.81;5030177;28;20053;-80
2020/12/30 00:35:08;;;;;;;4.97;2.90;;;;;;;0.65;83.86;97317.84;5020247;28;20045;-81
2020/12/30 00:37:35;;;;;;;8.10;3.67;;;;;;;0.67;84.21;97339.09;5030373;28;20076;-80
2020/12/30 00:40:01;;;;;;;7.87;3.60;;;;;;;0.68;83.90;97316.69;5030082;28;20045;-80
2020/12/30 00:42:31;;;;;;;3.50;2.63;;;;;;;0.70;84.06;97330.72;5030129;28;20052;-80
2020/12/30 00:44:59;;;;;;;;;;;;;;;0.65;84.64;97341.09;5029339;28;20188;-80
2020/12/30 00:47:26;;;;;;;7.87;2.97;;;;;;;0.63;84.47;97333.25;5029454;28;19928;-80
2020/12/30 00:49:52;;;;;;;5.83;2.97;;;;;;;0.77;84.04;97336.22;5030771;28;20053;-81
2020/12/30 00:52:18;;;;;;;5.60;3.40;;;;;;;0.75;84.44;97349.75;5030296;28;20058;-80
2020/12/30 00:54:45;;;;;;;7.63;3.28;;;;;;;0.66;84.63;97346.28;5030288;28;20104;-80
2020/12/30 00:57:11;;;;;;;5.73;2.90;;;;;;;0.82;84.05;97352.63;5030260;28;20053;-80
2020/12/30 00:59:39;;;;;;;5.87;3.07;;;;;;;0.82;84.67;97349.94;5030302;28;20057;-81
2020/12/30 01:02:09;;;;;;;5.40;2.50;;;;;;;0.93;84.46;97365.66;5030611;28;20056;-80
2020/12/30 01:04:35;;;;;;;4.57;2.88;;;;;;;0.76;84.86;97358.66;5031337;28;20453;-80
2020/12/30 01:07:02;;;;;;;5.00;2.60;;;;;;;0.68;85.37;97362.16;5031793;28;20049;-80
2020/12/30 01:09:28;;;;;;;4.53;2.80;;;;;;;0.64;84.97;97350.94;5032331;28;20508;-80
2020/12/30 01:11:55;;;;;;;3.90;2.63;;;;;;;0.60;85.07;97341.56;5032810;28;20045;-80
2020/12/30 01:14:21;;;;;;;4.13;2.57;;;;;;;0.80;85.54;97370.66;5032481;28;20053;-80
2020/12/30 01:16:48;;;;;;;6.40;2.73;;;;;;;0.83;85.57;97373.03;5032904;28;20053;-80
2020/12/30 01:19:16;;;;;;;3.58;2.50;;;;;;;0.82;85.90;97374.03;5035361;28;20091;-80
2020/12/30 01:21:43;;;;;;;7.43;3.17;;;;;;;0.77;86.17;97362.97;5035849;28;20095;-80
2020/12/30 01:24:09;;;;;;;3.72;2.50;;;;;;;0.72;86.56;97355.44;5035412;28;20543;-81
2020/12/30 01:26:36;;;;;;;8.05;3.03;;;;;;;0.82;86.59;97374.84;5034528;28;20465;-80
2020/12/30 01:29:03;;;;;;;4.15;2.53;;;;;;;0.83;86.40;97381.06;5033995;28;20049;-80
2020/12/30 01:31:30;;;;;;;4.05;2.55;;;;;;;0.78;86.99;97388.72;5034378;28;20056;-80
2020/12/30 01:33:57;;;;;;;2.83;2.33;;;;;;;0.64;86.64;97379.53;5034188;28;20083;-80
2020/12/30 01:36:25;;;;;;;9.87;3.17;;;;;;;0.60;86.69;97357.63;5034049;28;20460;-80
2020/12/30 01:38:52;;;;;;;5.00;2.88;;;;;;;0.68;86.69;97360.31;5035144;28;20076;-80
2020/12/30 01:41:19;;;;;;;4.37;2.97;;;;;;;0.70;86.24;97368.16;5035946;28;20084;-80
2020/12/30 01:43:59;;;;;;;3.53;2.17;;;;;;;0.85;86.45;97392.41;5035033;28;20056;-80
2020/12/30 01:46:34;;;;;;;3.95;2.38;;;;;;;0.91;85.92;97382.91;5027433;28;20060;-80
2020/12/30 01:49:02;;;;;;;4.32;2.42;;;;;;;0.84;85.70;97359.50;5035216;28;20059;-80
2020/12/30 01:51:30;;;;;;;4.03;2.73;;;;;;;0.93;85.79;97387.06;5035233;28;20045;-80
2020/12/30 01:53:57;;;;;;;5.55;2.28;;;;;;;0.99;85.26;97369.50;5035408;28;20076;-80
2020/12/30 01:56:27;;;;;;;3.80;2.05;;;;;;;1.04;85.77;97397.44;5035427;28;20046;-81
2020/12/30 01:58:53;;;;;;;4.30;2.75;;;;;;;0.94;86.00;97377.22;5035455;28;20049;-81
2020/12/30 02:01:23;;;;;;;5.90;2.87;;;;;;;1.02;85.99;97394.09;5035433;28;20045;-80
2020/12/30 02:03:54;;;;;;;6.68;2.80;;;;;;;1.04;86.34;97399.28;5035262;28;20053;-80
2020/12/30 02:06:20;;;;;;;4.33;2.70;;;;;;;1.07;86.12;97406.97;5035206;28;20056;-80
2020/12/30 02:08:48;;;;;;;5.00;2.67;;;;;;;0.88;85.74;97376.03;5035421;28;20099;-80
2020/12/30 02:11:15;;;;;;;6.15;2.97;;;;;;;1.15;85.84;97409.63;5035503;28;20061;-80
2020/12/30 02:13:41;;;;;;;2.90;2.20;;;;;;;1.13;85.71;97405.44;5035064;28;20064;-80
2020/12/30 02:16:07;;;;;;;6.13;2.30;;;;;;;1.18;85.16;97398.59;5034820;28;20049;-80
2020/12/30 02:18:33;;;;;;;2.83;1.98;;;;;;;1.01;84.93;97386.22;5034941;28;20391;-81
2020/12/30 02:21:00;;;;;;;3.55;2.20;;;;;;;1.04;85.55;97401.97;5034842;28;20053;-80
2020/12/30 02:23:27;;;;;;;2.95;2.15;;;;;;;1.11;85.27;97397.59;5034856;28;20493;-80
2020/12/30 02:25:54;;;;;;;4.53;2.43;;;;;;;1.20;85.35;97411.81;5034633;28;20048;-81
2020/12/30 02:28:21;;;;;;;4.23;2.07;;;;;;;1.05;85.28;97392.91;5035120;28;20046;-80
2020/12/30 02:30:47;;;;;;;2.28;1.80;;;;;;;1.09;84.87;97393.44;5034917;28;20050;-80
2020/12/30 02:33:13;;;;;;;3.75;2.47;;;;;;;1.24;84.66;97413.97;5034978;28;20085;-80
2020/12/30 02:35:40;;;;;;;4.85;2.00;;;;;;;1.14;84.54;97396.44;5034855;28;20045;-81
2020/12/30 02:38:06;;;;;;;2.60;2.03;;;;;;;1.24;84.23;97405.13;5034818;28;20050;-81
2020/12/30 02:40:32;;;;;;;3.88;2.40;;;;;;;1.33;84.51;97419.34;5034588;28;20080;-80
2020/12/30 02:42:59;;;;;;;2.60;1.85;;;;;;;1.30;84.92;97415.16;5034770;28;20045;-80
2020/12/30 02:45:26;;;;;;;3.65;2.28;;;;;;;1.34;84.41;97416.50;5033952;28;20504;-81
2020/12/30 02:47:52;;;;;;;4.43;2.60;;;;;;;1.11;84.20;97388.72;5034339;28;20046;-80
2020/12/30 02:50:18;;;;;;;8.33;2.80;;;;;;;1.30;84.06;97403.63;5034724;28;20049;-81
2020/12/30 02:52:44;;;;;;;3.95;2.35;;;;;;;1.28;84.04;97408.28;5034400;28;20049;-81
2020/12/30 02:55:11;;;;;;;5.63;2.35;;;;;;;1.27;84.40;97404.78;5033936;28;20107;-81
2020/12/30 02:57:37;;;;;;;6.18;2.33;;;;;;;1.26;83.74;97412.97;5034210;28;20041;-80
2020/12/30 03:00:05;;;;;;;4.43;2.70;;;;;;;1.28;83.55;97432.38;5034575;28;20080;-81
2020/12/30 03:02:31;;;;;;;4.30;2.20;;;;;;;1.21;83.58;97417.00;5034288;28;20490;-81
2020/12/30 03:04:57;;;;;;;2.83;2.40;;;;;;;1.15;83.82;97409.63;5033878;28;20107;-80
2020/12/30 03:07:23;;;;;;;4.77;2.40;;;;;;;1.25;84.07;97438.94;5034275;28;20048;-81
2020/12/30 03:09:50;;;;;;;4.00;2.27;;;;;;;1.20;84.03;97430.53;5034160;28;20053;-81
2020/12/30 03:12:16;;;;;;;3.57;2.30;;;;;;;1.21;83.87;97440.25;5034280;28;20057;-81
2020/12/30 03:14:42;;;;;;;2.80;2.35;;;;;;;1.12;84.26;97436.75;5033656;28;20064;-81
2020/12/30 03:17:09;;;;;;;3.83;2.23;;;;;;;1.03;84.19;97424.38;5034058;28;20057;-81
2020/12/30 03:19:36;;;;;;;4.20;2.30;;;;;;;1.08;84.35;97445.28;5033984;28;20111;-81
2020/12/30 03:22:02;;;;;;;3.70;2.20;;;;;;;0.84;85.18;97422.84;5033816;28;20053;-81
2020/12/30 03:24:29;;;;;;;2.95;2.08;;;;;;;0.95;85.54;97448.44;5033953;28;20049;-81
2020/12/30 03:26:55;;;;;;;2.90;2.20;;;;;;;0.87;85.73;97441.22;5034130;28;20045;-81
2020/12/30 03:29:21;;;;;;;3.15;2.13;;;;;;;0.73;85.61;97423.19;5014153;28;20049;-81
2020/12/30 03:31:47;;;;;;;3.90;1.70;;;;;;;0.79;85.54;97443.91;5025778;28;20053;-81
2020/12/30 03:34:15;;;;;;;4.03;2.15;;;;;;;0.73;85.61;97439.22;5033990;28;20049;-81
2020/12/30 03:36:41;;;;;;;2.20;1.98;;;;;;;0.79;86.40;97449.25;5039617;28;20052;-81
2020/12/30 03:39:07;;;;;;;6.30;2.28;;;;;;;0.75;86.54;97455.94;5036066;28;20069;-81
2020/12/30 03:41:34;;;;;;;3.20;2.20;;;;;;;0.64;86.72;97447.22;5033348;28;20618;-81
2020/12/30 03:44:00;;;;;;;6.97;2.80;;;;;;;0.65;87.66;97453.44;5032721;28;20103;-81
2020/12/30 03:46:26;;;;;;;3.85;2.40;;;;;;;0.74;87.54;97457.78;5033420;28;20516;-81
2020/12/30 03:48:52;;;;;;;3.45;2.38;;;;;;;0.72;87.66;97450.91;5033215;28;20049;-81
2020/12/30 03:51:20;;;;;;;3.03;2.20;;;;;;;0.61;87.69;97436.84;5033364;28;20383;-81
2020/12/30 03:53:46;;;;;;;4.75;1.92;;;;;;;0.61;88.02;97419.97;5033590;28;20049;-81
2020/12/30 03:56:12;;;;;;;3.22;2.17;;;;;;;0.78;87.95;97440.38;5033554;28;20100;-81
2020/12/30 03:58:38;;;;;;;3.17;2.17;;;;;;;0.80;87.70;97438.41;5033057;28;20049;-81
2020/12/30 04:01:05;;;;;;;4.20;2.23;;;;;;;0.88;87.01;97453.63;5033498;28;20049;-81
2020/12/30 04:03:31;;;;;;;3.55;2.17;;;;;;;0.85;86.79;97438.72;5033135;28;20041;-81
2020/12/30 04:05:57;;;;;;;2.90;2.30;;;;;;;0.91;86.37;97439.09;5033247;28;20061;-80
2020/12/30 04:08:25;;;;;;;4.80;2.33;;;;;;;0.80;86.72;97429.50;5033368;28;20556;-81
2020/12/30 04:10:51;;;;;;;4.23;2.00;;;;;;;0.72;87.03;97432.19;5033261;28;20062;-81
2020/12/30 04:13:17;;;;;;;3.80;2.27;;;;;;;0.68;87.27;97437.88;5033515;28;20053;-80
2020/12/30 04:15:46;;;;;;;5.77;2.00;;;;;;;0.49;87.48;97420.28;5032891;28;20058;-80
2020/12/30 04:18:12;;;;;;;3.77;2.60;;;;;;;0.56;87.59;97443.69;5033409;28;20107;-81
2020/12/30 04:20:39;;;;;;;3.60;2.22;;;;;;;0.42;87.53;97437.16;5033185;28;20390;-80
2020/12/30 04:23:05;;;;;;;3.38;2.20;;;;;;;0.39;87.69;97435.63;5033356;28;20448;-81
2020/12/30 04:25:32;;;;;;;4.72;2.05;;;;;;;0.44;87.65;97451.19;5033074;28;20069;-81
2020/12/30 04:27:58;;;;;;;2.90;2.15;;;;;;;0.40;87.50;97458.69;5033443;28;20049;-81
2020/12/30 04:30:25;;;;;;;2.67;2.08;;;;;;;0.31;86.87;97455.16;5033101;28;20053;-81
2020/12/30 04:32:53;;;;;;;4.30;1.83;;;;;;;0.22;87.22;97457.97;5033264;28;20057;-81
2020/12/30 04:35:19;;;;;;;2.83;2.30;;;;;;;0.13;86.94;97447.22;5032921;28;20041;-81
2020/12/30 04:37:45;;;;;;;3.33;2.30;;;;;;;0.04;87.89;97439.34;5033423;28;20053;-81
2020/12/30 04:40:11;;;;;;;2.70;2.07;;;;;;;0.04;87.88;97447.38;5033239;28;20057;-80
2020/12/30 04:42:39;;;;;;;5.50;2.40;;;;;;;0.18;87.78;97473.47;5033220;28;20099;-81
2020/12/30 04:45:07;;;;;;;4.23;2.50;;;;;;;0.18;87.75;97481.50;5032076;28;20072;-81
2020/12/30 04:47:34;;;;;;;2.43;2.00;;;;;;;-0.05;88.04;97468.69;5032837;28;20049;-80
2020/12/30 04:50:01;;;;;;;2.20;1.57;;;;;;;-0.04;88.65;97466.88;5032793;28;20103;-81
2020/12/30 04:52:28;;;;;;;3.07;2.10;;;;;;;-0.01;88.06;97463.88;5032964;28;20041;-80
2020/12/30 04:54:55;;;;;;;3.10;2.07;;;;;;;-0.03;87.56;97479.22;5036643;28;20582;-80
2020/12/30 04:57:31;;;;;;;4.77;2.47;;;;;;;-0.11;88.13;97473.84;5036992;28;20057;-81
2020/12/30 05:00:02;;;;;;;2.53;2.00;;;;;;;-0.01;87.92;97479.91;5035463;28;20461;-80
2020/12/30 05:02:33;;;;;;;3.40;2.20;;;;;;;-0.09;88.29;97479.84;5036476;28;20477;-80
2020/12/30 05:05:00;;;;;;;3.13;2.23;;;;;;;-0.07;88.24;97492.06;5036683;28;20103;-80
2020/12/30 05:07:28;;;;;;;5.37;2.43;;;;;;;-0.14;89.03;97476.84;5036549;28;20054;-81
2020/12/30 05:09:55;;;;;;;4.33;2.40;;;;;;;-0.09;88.20;97485.19;5036081;28;20050;-79
2020/12/30 05:12:22;;;;;;;3.77;2.17;;;;;;;-0.07;88.39;97485.91;5036426;28;20053;-79
2020/12/30 05:14:49;;;;;;;11.90;2.07;;;;;;;-0.10;87.99;97470.19;5036341;28;20045;-82
2020/12/30 05:17:17;;;;;;;4.60;2.00;;;;;;;0.00;87.42;97489.63;5036433;28;20056;-81
2020/12/30 05:19:45;;;;;;;2.73;2.07;;;;;;;-0.14;88.21;97499.03;5036367;28;20513;-81
2020/12/30 05:22:16;;;;;;;3.47;2.10;;;;;;;-0.29;88.70;97487.25;5035593;28;20053;-81
2020/12/30 05:24:45;;;;;;;2.10;1.93;;;;;;;-0.29;88.80;97498.78;5016217;28;20046;-80
2020/12/30 05:27:26;;;;;;;2.77;2.10;;;;;;;-0.11;87.68;97511.25;5032231;28;20667;-80
2020/12/30 05:29:53;;;;;;;4.73;2.43;;;;;;;-0.17;87.67;97522.56;5036018;28;20489;-80
2020/12/30 05:32:20;;;;;;;4.07;2.20;;;;;;;-0.48;88.42;97493.63;5035903;28;20460;-80
2020/12/30 05:34:47;;;;;;;3.03;2.07;;;;;;;-0.40;88.08;97517.75;5036092;28;20482;-80
2020/12/30 05:37:15;;;;;;;4.87;3.13;;;;;;;-0.49;88.79;97521.34;5034756;28;20486;-80
2020/12/30 05:39:42;;;;;;;3.43;2.20;;;;;;;-0.56;88.08;97495.28;5035657;28;20080;-80
2020/12/30 05:42:13;;;;;;;4.50;2.20;;;;;;;-0.50;88.51;97527.66;5035572;28;20520;-80
2020/12/30 05:44:39;;;;;;;3.40;2.10;;;;;;;-0.55;88.51;97522.78;5034416;28;20064;-80
2020/12/30 05:47:16;;;;;;;5.60;2.50;;;;;;;-0.65;88.61;97522.88;5035169;28;20053;-79
2020/12/30 05:49:48;;;;;;;4.13;2.17;;;;;;;-0.57;88.56;97543.47;5035145;28;20045;-79
2020/12/30 05:52:17;;;;;;;2.93;2.23;;;;;;;-0.83;88.45;97508.72;5015406;28;20057;-80
2020/12/30 05:54:47;;;;;;;2.87;2.00;;;;;;;-0.84;88.94;97525.72;5014845;28;20053;-80
2020/12/30 05:57:28;;;;;;;5.97;1.90;;;;;;;-0.70;88.82;97535.84;5015362;28;20108;-79
2020/12/30 05:59:58;;;;;;;5.27;2.40;;;;;;;-0.84;88.73;97521.22;5015097;28;20053;-81
2020/12/30 06:02:26;;;;;;;4.50;2.58;;;;;;;-0.60;88.99;97539.28;5052405;28;20080;-81
2020/12/30 06:04:55;;;;;;;3.30;2.20;;;;;;;-0.52;88.60;97548.34;5053193;28;20091;-80
2020/12/30 06:07:26;;;;;;;3.27;2.10;;;;;;;-0.65;88.37;97546.88;5034691;28;20046;-80
2020/12/30 06:09:55;;;;;;;2.37;2.17;;;;;;;-0.64;88.33;97559.25;5034844;28;20054;-81
2020/12/30 06:12:27;;;;;;;7.78;2.13;;;;;;;-0.79;88.29;97534.09;5034889;28;20460;-81
2020/12/30 06:14:55;;;;;;;6.13;1.97;;;;;;;-0.83;88.45;97546.91;5034348;28;20076;-80
2020/12/30 06:17:28;;;;;;;2.97;2.00;;;;;;;-0.69;87.73;97561.56;5034153;28;20045;-81
2020/12/30 06:19:56;;;;;;;4.47;1.80;;;;;;;-0.73;87.91;97569.00;5032762;28;20061;-81
2020/12/30 06:22:24;;;;;;;2.43;2.17;;;;;;;-0.72;88.16;97577.88;5032655;28;20549;-81
2020/12/30 06:24:51;;;;;;;5.33;2.30;;;;;;;-0.78;89.01;97575.81;5033025;28;20046;-81
2020/12/30 06:27:23;;;;;;;3.47;2.40;;;;;;;-0.82;88.92;97574.44;5032368;28;20053;-80
2020/12/30 06:29:53;;;;;;;9.63;3.00;;;;;;;-0.73;89.71;97574.34;5028033;28;20049;-81
2020/12/30 06:32:27;;;;;;;2.90;2.13;;;;;;;-0.89;90.06;97547.50;5028320;28;20068;-81
2020/12/30 06:34:54;;;;;;;4.33;2.67;;;;;;;-0.68;89.47;97557.88;5032713;28;20045;-81
2020/12/30 06:37:28;;;;;;;7.13;2.90;;;;;;;-0.43;89.20;97582.13;5032322;28;20056;-81
2020/12/30 06:40:26;;;;;;;4.67;2.57;;;;;;;-0.32;88.81;97581.88;5033348;28;20054;-81
2020/12/30 06:42:57;;;;;;;3.90;1.97;;;;;;;-0.32;88.53;97573.84;5032640;28;20064;-81
2020/12/30 06:45:49;;;;;;;4.97;2.10;;;;;;;-0.32;89.06;97584.53;5032132;28;20037;-81
2020/12/30 06:48:16;;;;;;;6.50;1.83;;;;;;;-0.30;89.39;97592.41;5024173;28;20088;-80
2020/12/30 06:50:43;;;;;;;3.00;2.30;;;;;;;-0.25;89.12;97582.09;5032316;28;20107;-81
2020/12/30 06:53:32;;;;;;;3.50;2.00;;;;;;;-0.14;88.86;97597.03;5033096;28;20050;-81
2020/12/30 06:56:03;;;;;;;2.72;2.15;;;;;;;-0.14;88.64;97608.56;5031955;28;20099;-81
2020/12/30 06:58:43;;;;;;;6.27;2.37;;;;;;;-0.20;88.48;97603.84;5032192;28;20053;-81
2020/12/30 07:01:11;;;;;;;;;;;;;;;-0.15;88.78;97617.59;5031735;28;20045;-81
2020/12/30 07:03:37;;;;;;;4.17;2.17;;;;;;;-0.11;88.18;97610.91;5032305;28;19952;-81
2020/12/30 07:06:34;;;;;;;3.30;2.23;;;;;;;-0.14;88.08;97595.19;5030360;28;20052;-81
2020/12/30 07:09:03;;;;;;;5.07;2.57;;;;;;;-0.09;88.22;97592.91;5031875;28;20049;-80
2020/12/30 07:11:44;;;;;;;5.63;2.33;;;;;;;0.10;87.94;97620.41;5031832;28;20424;-80
2020/12/30 07:14:12;;;;;;;3.17;2.00;;;;;;;0.10;87.87;97629.25;5028603;28;20068;-80
2020/12/30 07:16:39;;;;;;;3.40;2.30;;;;;;;0.04;87.74;97621.88;5031258;28;20041;-80
2020/12/30 07:19:13;;;;;;;4.37;2.20;;;;;;;-0.13;87.73;97599.56;5032127;28;20042;-80
2020/12/30 07:22:00;;;;;;;6.23;2.60;;;;;;;0.07;87.66;97631.44;5031614;28;20045;-82
2020/12/30 07:24:30;;;;;;;6.53;2.30;;;;;;;-0.05;88.17;97612.13;5031768;28;20049;-79
2020/12/30 07:27:00;;;;;;;4.05;2.20;;;;;;;-0.09;87.88;97611.63;5029654;28;20493;-79
2020/12/30 07:29:26;;;;;;;;;;;;;;;0.12;87.18;97639.81;5027934;28;20061;-79
2020/12/30 07:31:55;;;;;;;9.33;2.67;;;;;;;-0.20;87.62;97615.38;5024610;28;19929;-79
2020/12/30 07:34:24;;;;;;;6.97;2.65;;;;;;;-0.09;87.15;97627.66;5031009;28;20513;-79
2020/12/30 07:36:51;;;;;;;5.43;2.40;;;;;;;0.07;86.96;97644.78;5030952;28;20099;-79
2020/12/30 07:39:24;;;;;;;3.30;2.43;;;;;;;-0.06;86.88;97635.34;5031115;28;20049;-79
2020/12/30 07:41:52;;;;;;;3.70;2.20;;;;;;;-0.10;86.46;97625.13;5030659;28;20056;-79
2020/12/30 07:44:32;;;;;;;4.57;2.50;;;;;;;-0.06;86.56;97643.38;5029822;28;20056;-79
2020/12/30 07:47:03;;;;;;;3.53;2.60;;;;;;;-0.16;86.83;97655.13;5030685;28;20099;-79
2020/12/30 07:49:29;;;;;;;4.47;2.00;;;;;;;-0.05;87.16;97666.41;5031181;28;20517;-79
2020/12/30 07:51:57;;;;;;;5.30;2.30;;;;;;;0.03;86.93;97654.09;5031298;28;20048;-79
2020/12/30 07:54:27;;;;;;;4.07;2.27;;;;;;;0.20;86.70;97669.28;5030297;28;20049;-79
2020/12/30 07:57:07;;;;;;;7.47;2.50;;;;;;;0.09;86.72;97638.31;5031017;28;20041;-79
2020/12/30 07:59:34;;;;;;;3.88;2.25;;;;;;;0.21;87.04;97665.63;5031576;28;20049;-79
2020/12/30 08:02:02;;;;;;;6.00;2.20;;;;;;;0.19;86.51;97659.56;5030282;28;20228;-79
2020/12/30 08:04:29;;;;;;;7.20;2.40;;;;;;;0.29;86.25;97673.69;5031398;28;20059;-79
2020/12/30 08:06:56;;;;;;;6.00;2.40;;;;;;;0.26;86.58;97662.47;5030880;28;20051;-79
2020/12/30 08:09:27;;;;;;;6.60;2.83;;;;;;;0.41;86.50;97692.16;5029342;28;20045;-79
2020/12/30 08:11:55;;;;;;;5.07;2.50;;;;;;;0.34;86.52;97668.69;5029594;28;20045;-79
2020/12/30 08:14:24;;;;;;;6.70;2.37;;;;;;;0.29;86.95;97673.69;5030226;28;20045;-79
2020/12/30 08:16:55;;;;;;;6.23;2.50;;;;;;;0.25;87.16;97679.50;5029635;28;20076;-79
2020/12/30 08:19:33;;;;;;;4.70;2.47;;;;;;;0.47;87.03;97712.91;5030258;28;20045;-79
2020/12/30 08:22:05;;;;;;;5.33;3.17;;;;;;;0.39;86.67;97686.94;5030469;28;20050;-79
2020/12/30 08:24:32;;;;;;;4.77;3.17;;;;;;;0.54;86.17;97692.53;5030250;28;20095;-79
2020/12/30 08:26:59;;;;;;;7.90;2.73;;;;;;;0.52;86.83;97683.84;5031622;28;20053;-79
2020/12/30 08:29:32;;;;;;;7.37;2.73;;;;;;;0.57;85.97;97702.09;5034299;28;20135;-79
2020/12/30 08:32:06;;;;;;;4.63;2.67;;;;;;;0.69;85.83;97715.06;5035245;28;20152;-79
2020/12/30 08:34:40;;;;;;;5.43;2.83;;;;;;;0.67;84.99;97701.00;5034624;28;20053;-79
2020/12/30 08:37:11;;;;;;;4.37;2.47;;;;;;;0.90;84.89;97729.06;5034518;28;20045;-79
2020/12/30 08:39:44;;;;;;;4.10;2.50;;;;;;;0.95;85.36;97732.94;5035093;28;20104;-79
2020/12/30 08:42:25;;;;;;;8.30;2.47;;;;;;;0.82;85.58;97713.78;5030685;28;20524;-79
2020/12/30 08:45:03;;;;;;;2.33;1.73;;;;;;;0.97;84.49;97724.75;5031912;28;20111;-80
2020/12/30 08:47:38;;;;;;;3.90;2.27;;;;;;;0.97;85.22;97719.41;5034209;28;20638;-80
2020/12/30 08:50:06;;;;;;;2.23;1.90;;;;;;;1.16;84.84;97734.34;5031318;28;20042;-80
2020/12/30 08:52:39;;;;;;;3.23;2.47;;;;;;;1.10;84.32;97732.31;5032949;28;20057;-81
2020/12/30 08:55:06;;;;;;;3.13;1.57;;;;;;;1.18;84.37;97740.41;5033225;28;20054;-81
2020/12/30 08:57:32;;;;;;;5.67;2.23;;;;;;;1.19;83.86;97740.25;5034149;28;20136;-80
2020/12/30 09:00:19;;;;;;;4.13;1.90;;;;;;;1.29;84.03;97740.09;5034838;28;20053;-80
2020/12/30 09:02:48;;;;;;;5.35;2.33;;;;;;;1.30;83.67;97732.94;5033924;28;20049;-80
2020/12/30 09:05:14;;;;;;;2.60;2.13;;;;;;;1.25;84.14;97725.38;5033155;28;20417;-81
2020/12/30 09:07:41;;;;;;;5.15;1.88;;;;;;;1.50;84.43;97765.63;5031911;28;20064;-80
2020/12/30 09:10:14;;;;;;;6.53;2.37;;;;;;;1.54;83.82;97757.13;5032908;28;20153;-80
2020/12/30 09:12:42;;;;;;;2.90;1.95;;;;;;;1.52;84.46;97747.56;5034075;28;20452;-80
2020/12/30 09:15:08;;;;;;;3.83;2.08;;;;;;;1.62;83.12;97761.66;5033458;28;20057;-81
2020/12/30 09:17:37;;;;;;;3.08;1.92;;;;;;;1.58;82.86;97738.88;5033317;28;20110;-81
2020/12/30 09:20:17;;;;;;;2.97;1.98;;;;;;;1.82;82.74;97772.09;5033698;28;20056;-80
2020/12/30 09:22:47;;;;;;;3.63;1.83;;;;;;;1.84;82.00;97762.91;5034616;28;20081;-81
2020/12/30 09:25:35;;;;;;;6.60;2.33;;;;;;;1.84;81.68;97741.47;5031913;28;20046;-81
2020/12/30 09:28:02;;;;;;;4.95;2.00;;;;;;;2.04;81.67;97752.72;5031619;28;20440;-81
2020/12/30 09:30:34;;;;;;;3.95;1.85;;;;;;;1.91;81.32;97730.91;5027985;28;20042;-81
2020/12/30 09:33:12;;;;;;;2.53;1.77;;;;;;;2.18;81.11;97767.31;5014511;28;20052;-81
2020/12/30 09:35:39;;;;;;;2.30;1.42;;;;;;;2.08;82.19;97764.78;5030155;28;20072;-81
2020/12/30 09:38:05;;;;;;;4.95;2.10;;;;;;;2.03;81.60;97744.84;5031093;28;20049;-81
2020/12/30 09:40:43;;;;;;;4.00;1.88;;;;;;;2.10;82.68;97757.41;5014689;28;20037;-81
2020/12/30 09:43:11;;;;;;;3.47;1.70;;;;;;;2.15;81.60;97742.69;5033667;28;20478;-81
2020/12/30 09:45:40;;;;;;;2.75;1.65;;;;;;;2.35;81.00;97770.84;5017789;28;20148;-81
2020/12/30 09:48:14;;;;;;;4.95;2.17;;;;;;;2.27;81.09;97752.91;5033893;28;20128;-81
2020/12/30 09:50:42;;;;;;;3.15;1.67;;;;;;;2.32;81.71;97775.69;5032781;28;20046;-81
2020/12/30 09:53:09;;;;;;;2.00;1.80;;;;;;;2.45;80.83;97773.34;5030042;28;20058;-81
2020/12/30 09:55:37;;;;;;;4.60;1.83;;;;;;;2.47;80.00;97766.81;5026048;28;20049;-81
2020/12/30 09:58:05;;;;;;;16.48;2.10;;;;;;;2.43;79.97;97751.25;5029188;28;20049;-81
2020/12/30 10:00:33;;;;;;;4.18;2.10;;;;;;;2.50;81.24;97768.34;5033869;28;20280;-81
2020/12/30 10:03:00;;;;;;;6.30;1.75;;;;;;;2.29;81.58;97747.38;5026103;28;20494;-81
2020/12/30 10:05:27;;;;;;;3.15;1.50;;;;;;;2.29;81.37;97772.34;5029997;28;20107;-81
2020/12/30 10:07:54;;;;;;;2.63;1.27;;;;;;;2.18;81.00;97755.75;5033036;28;20045;-81
2020/12/30 10:10:23;;;;;;;2.92;1.65;;;;;;;2.32;80.65;97741.69;5032772;28;20053;-81
2020/12/30 10:12:49;;;;;;;2.53;1.77;;;;;;;2.28;80.20;97746.53;5033046;28;20049;-80
2020/12/30 10:15:17;;;;;;;4.82;1.65;;;;;;;2.32;80.21;97744.38;5032783;28;20323;-80
2020/12/30 10:17:50;;;;;;;4.72;2.50;;;;;;;2.31;81.33;97748.06;5032827;28;20045;-81
2020/12/30 10:20:19;;;;;;;4.18;1.70;;;;;;;2.43;80.98;97764.66;5028000;28;20042;-81
2020/12/30 10:22:47;;;;;;;4.47;2.38;;;;;;;2.57;79.85;97787.28;5030289;28;20045;-80
2020/12/30 10:25:15;;;;;;;4.55;2.10;;;;;;;2.51;80.07;97786.09;5024813;28;20099;-81
2020/12/30 10:27:44;;;;;;;3.05;2.00;;;;;;;2.66;80.62;97780.91;5030129;28;20052;-81
2020/12/30 10:30:10;;;;;;;4.45;2.17;;;;;;;2.80;79.48;97795.47;5019613;28;20049;-81
2020/12/30 10:32:37;;;;;;;7.43;2.33;;;;;;;2.64;78.41;97764.16;5032254;28;20562;-81
2020/12/30 10:35:04;;;;;;;6.50;2.30;;;;;;;2.54;80.12;97760.78;5014791;28;20112;-80
2020/12/30 10:37:30;;;;;;;2.13;1.83;;;;;;;2.71;79.46;97769.66;5033593;28;20045;-81
2020/12/30 10:39:58;;;;;;;4.03;1.90;;;;;;;2.59;79.17;97763.78;5034589;28;20054;-80
2020/12/30 10:42:25;;;;;;;3.08;2.00;;;;;;;2.71;79.33;97796.50;5034121;28;20049;-80
2020/12/30 10:45:13;;;;;;;2.95;2.10;;;;;;;2.54;79.56;97774.19;5029517;28;20450;-81
2020/12/30 10:47:41;;;;;;;6.13;2.40;;;;;;;2.67;80.13;97801.38;5013664;28;20489;-80
2020/12/30 10:50:16;;;;;;;3.47;2.42;;;;;;;2.61;79.39;97768.00;5033373;28;20049;-81
2020/12/30 10:52:45;;;;;;;2.90;1.83;;;;;;;2.73;79.00;97778.41;5032432;28;20053;-81
2020/12/30 10:55:18;;;;;;;4.15;2.13;;;;;;;2.87;79.36;97783.06;5030655;28;20046;-80
2020/12/30 10:57:45;;;;;;;3.30;2.13;;;;;;;2.78;79.22;97786.78;5028602;28;20753;-81
2020/12/30 11:00:11;;;;;;;5.38;2.28;;;;;;;2.70;79.59;97770.69;5020596;28;20483;-80
2020/12/30 11:02:38;;;;;;;5.85;1.83;;;;;;;2.86;79.14;97785.91;5018295;28;20065;-81
2020/12/30 11:05:04;;;;;;;4.15;2.03;;;;;;;2.91;79.20;97775.53;5031706;28;20049;-81
2020/12/30 11:07:30;;;;;;;3.92;1.95;;;;;;;3.14;79.08;97789.06;5030816;28;20470;-81
2020/12/30 11:09:57;;;;;;;2.92;1.50;;;;;;;3.22;78.55;97793.56;5032167;28;20058;-81
2020/12/30 11:12:24;;;;;;;2.60;1.73;;;;;;;3.21;79.39;97787.38;5031820;28;20049;-81
2020/12/30 11:14:50;;;;;;;3.08;1.75;;;;;;;3.15;79.80;97780.84;5030898;28;20448;-81
2020/12/30 11:17:17;;;;;;;6.35;1.90;;;;;;;3.18;79.79;97779.66;5031791;28;20045;-81
2020/12/30 11:19:50;;;;;;;4.75;1.70;;;;;;;3.36;79.35;97809.00;5032595;28;20057;-81
2020/12/30 11:22:19;;;;;;;4.20;2.00;;;;;;;3.18;80.10;97774.28;5031087;28;20110;-81
2020/12/30 11:24:46;;;;;;;3.70;2.43;;;;;;;3.19;78.65;97760.69;5014281;28;20514;-81
2020/12/30 11:27:12;;;;;;;6.13;1.90;;;;;;;3.43;79.07;97788.47;5026306;28;20048;-80
2020/12/30 11:29:39;;;;;;;3.65;1.77;;;;;;;3.42;79.34;97788.63;5031098;28;20049;-80
2020/12/30 11:32:06;;;;;;;3.25;1.90;;;;;;;3.48;78.10;97798.72;5029768;28;20053;-81
2020/12/30 11:34:32;;;;;;;1.88;1.70;;;;;;;3.43;78.52;97790.31;5025344;28;20744;-81
2020/12/30 11:36:59;;;;;;;2.40;1.70;;;;;;;3.36;77.64;97780.28;5030569;28;20103;-81
2020/12/30 11:39:25;;;;;;;2.42;1.92;;;;;;;3.41;79.16;97785.13;5030525;28;20053;-80
2020/12/30 11:41:52;;;;;;;7.25;2.78;;;;;;;3.46;78.30;97782.78;5031298;28;20100;-81
2020/12/30 11:44:20;;;;;;;3.60;1.60;;;;;;;3.48;78.51;97806.78;5030961;28;20037;-81
2020/12/30 11:46:51;;;;;;;3.75;1.70;;;;;;;3.38;77.94;97785.47;5031288;28;20052;-81
2020/12/30 11:49:18;;;;;;;9.13;1.80;;;;;;;3.44;77.74;97792.84;5030537;28;20053;-81